sensor_id;sensor_type;location;lat;lon;timestamp;pressure;altitude;pressure_sealevel;temperature;humidity
19005;BME280;9635;52.078;8.648;2023-04-24T00:00:24;98939.28;;;10.30;64.76
19005;BME280;9635;52.078;8.648;2023-04-24T00:05:27;98926.69;;;10.05;64.74
19005;BME280;9635;52.078;8.648;2023-04-24T00:10:31;98921.75;;;10.18;64.58
19005;BME280;9635;52.078;8.648;2023-04-24T00:15:35;98933.94;;;10.38;63.94
19005;BME280;9635;52.078;8.648;2023-04-24T00:20:38;98927.13;;;10.18;63.58
19005;BME280;9635;52.078;8.648;2023-04-24T00:25:41;98927.63;;;9.96;63.26
19005;BME280;9635;52.078;8.648;2023-04-24T00:30:45;98920.16;;;10.33;64.21
19005;BME280;9635;52.078;8.648;2023-04-24T00:35:48;98925.34;;;10.27;63.89
19005;BME280;9635;52.078;8.648;2023-04-24T00:40:51;98915.44;;;10.53;65.84
19005;BME280;9635;52.078;8.648;2023-04-24T00:45:57;98910.28;;;10.68;65.36
19005;BME280;9635;52.078;8.648;2023-04-24T00:51:01;98911.25;;;10.59;65.40
19005;BME280;9635;52.078;8.648;2023-04-24T00:56:04;98904.22;;;10.32;64.44
19005;BME280;9635;52.078;8.648;2023-04-24T01:01:09;98893.38;;;9.89;63.88
19005;BME280;9635;52.078;8.648;2023-04-24T01:06:13;98900.81;;;10.22;63.55
19005;BME280;9635;52.078;8.648;2023-04-24T01:11:17;98889.25;;;10.55;64.29
19005;BME280;9635;52.078;8.648;2023-04-24T01:16:21;98889.94;;;10.57;63.84
19005;BME280;9635;52.078;8.648;2023-04-24T01:21:26;98887.59;;;10.63;64.84
19005;BME280;9635;52.078;8.648;2023-04-24T01:26:33;98879.63;;;10.45;65.30
19005;BME280;9635;52.078;8.648;2023-04-24T01:31:36;98881.69;;;10.51;64.64
19005;BME280;9635;52.078;8.648;2023-04-24T01:36:39;98881.91;;;10.66;66.62
19005;BME280;9635;52.078;8.648;2023-04-24T01:41:45;98881.06;;;10.65;68.11
19005;BME280;9635;52.078;8.648;2023-04-24T01:46:48;98876.31;;;10.51;67.87
19005;BME280;9635;52.078;8.648;2023-04-24T01:51:52;98882.75;;;10.32;67.66
19005;BME280;9635;52.078;8.648;2023-04-24T01:56:56;98875.91;;;10.11;67.58
19005;BME280;9635;52.078;8.648;2023-04-24T02:01:59;98881.09;;;9.87;67.93
19005;BME280;9635;52.078;8.648;2023-04-24T02:07:02;98882.97;;;9.50;68.25
19005;BME280;9635;52.078;8.648;2023-04-24T02:12:09;98895.28;;;9.43;67.39
19005;BME280;9635;52.078;8.648;2023-04-24T02:17:12;98898.06;;;9.69;66.69
19005;BME280;9635;52.078;8.648;2023-04-24T02:22:15;98889.50;;;9.30;66.81
19005;BME280;9635;52.078;8.648;2023-04-24T02:27:19;98893.06;;;9.57;65.75
19005;BME280;9635;52.078;8.648;2023-04-24T02:32:22;98911.59;;;9.32;66.08
19005;BME280;9635;52.078;8.648;2023-04-24T02:37:25;98893.75;;;9.77;65.36
19005;BME280;9635;52.078;8.648;2023-04-24T02:42:29;98897.66;;;9.28;66.31
19005;BME280;9635;52.078;8.648;2023-04-24T02:47:32;98889.47;;;9.48;66.01
19005;BME280;9635;52.078;8.648;2023-04-24T02:52:35;98892.16;;;9.66;64.81
19005;BME280;9635;52.078;8.648;2023-04-24T02:57:39;98883.97;;;9.49;65.19
19005;BME280;9635;52.078;8.648;2023-04-24T03:02:42;98879.47;;;9.76;64.74
19005;BME280;9635;52.078;8.648;2023-04-24T03:07:45;98890.88;;;9.52;65.60
19005;BME280;9635;52.078;8.648;2023-04-24T03:12:49;98888.66;;;9.65;65.53
19005;BME280;9635;52.078;8.648;2023-04-24T03:17:52;98904.44;;;9.33;65.57
19005;BME280;9635;52.078;8.648;2023-04-24T03:22:57;98891.09;;;9.59;65.44
19005;BME280;9635;52.078;8.648;2023-04-24T03:28:02;98883.03;;;10.21;63.99
19005;BME280;9635;52.078;8.648;2023-04-24T03:33:17;98876.66;;;10.22;64.07
19005;BME280;9635;52.078;8.648;2023-04-24T03:38:38;98879.69;;;10.01;64.05
19005;BME280;9635;52.078;8.648;2023-04-24T03:43:57;98885.09;;;9.83;64.68
19005;BME280;9635;52.078;8.648;2023-04-24T03:49:00;98882.50;;;10.17;64.37
19005;BME280;9635;52.078;8.648;2023-04-24T03:54:07;98880.97;;;10.14;64.52
19005;BME280;9635;52.078;8.648;2023-04-24T03:59:15;98869.50;;;10.30;64.08
19005;BME280;9635;52.078;8.648;2023-04-24T04:04:23;98882.03;;;9.96;64.57
19005;BME280;9635;52.078;8.648;2023-04-24T04:09:26;98879.13;;;9.89;64.42
19005;BME280;9635;52.078;8.648;2023-04-24T04:14:31;98886.41;;;9.61;64.96
19005;BME280;9635;52.078;8.648;2023-04-24T04:19:34;98881.81;;;9.89;64.00
19005;BME280;9635;52.078;8.648;2023-04-24T04:24:37;98892.22;;;9.56;64.39
19005;BME280;9635;52.078;8.648;2023-04-24T04:29:44;98886.00;;;9.73;63.58
19005;BME280;9635;52.078;8.648;2023-04-24T04:34:49;98879.91;;;9.63;64.28
19005;BME280;9635;52.078;8.648;2023-04-24T04:39:56;98885.84;;;9.75;64.05
19005;BME280;9635;52.078;8.648;2023-04-24T04:45:06;98868.25;;;9.72;64.89
19005;BME280;9635;52.078;8.648;2023-04-24T04:50:22;98886.50;;;9.69;64.55
19005;BME280;9635;52.078;8.648;2023-04-24T04:55:29;98886.97;;;9.28;65.35
19005;BME280;9635;52.078;8.648;2023-04-24T05:00:49;98912.47;;;9.33;65.67
19005;BME280;9635;52.078;8.648;2023-04-24T05:06:06;98925.63;;;8.71;66.60
19005;BME280;9635;52.078;8.648;2023-04-24T05:11:12;98937.84;;;8.36;67.54
19005;BME280;9635;52.078;8.648;2023-04-24T05:16:17;98943.38;;;8.25;67.71
19005;BME280;9635;52.078;8.648;2023-04-24T05:21:22;98949.09;;;8.49;66.51
19005;BME280;9635;52.078;8.648;2023-04-24T05:26:26;98947.75;;;8.73;66.10
19005;BME280;9635;52.078;8.648;2023-04-24T05:31:33;98943.44;;;8.90;65.38
19005;BME280;9635;52.078;8.648;2023-04-24T05:36:37;98946.94;;;9.00;64.90
19005;BME280;9635;52.078;8.648;2023-04-24T05:41:39;98950.16;;;9.21;64.83
19005;BME280;9635;52.078;8.648;2023-04-24T05:46:44;98965.50;;;8.74;65.91
19005;BME280;9635;52.078;8.648;2023-04-24T05:51:47;98955.41;;;8.95;65.36
19005;BME280;9635;52.078;8.648;2023-04-24T05:56:51;98945.75;;;9.48;63.77
19005;BME280;9635;52.078;8.648;2023-04-24T06:02:07;98942.41;;;8.73;66.59
19005;BME280;9635;52.078;8.648;2023-04-24T06:07:11;98948.16;;;8.78;66.66
19005;BME280;9635;52.078;8.648;2023-04-24T06:12:16;98950.16;;;9.21;65.88
19005;BME280;9635;52.078;8.648;2023-04-24T06:17:32;98953.25;;;9.26;65.65
19005;BME280;9635;52.078;8.648;2023-04-24T06:22:35;98965.97;;;9.24;65.45
19005;BME280;9635;52.078;8.648;2023-04-24T06:27:38;98957.53;;;9.37;65.20
19005;BME280;9635;52.078;8.648;2023-04-24T06:32:43;98966.34;;;9.29;64.48
19005;BME280;9635;52.078;8.648;2023-04-24T06:37:46;98962.41;;;9.06;65.49
19005;BME280;9635;52.078;8.648;2023-04-24T06:42:49;98967.63;;;8.70;66.37
19005;BME280;9635;52.078;8.648;2023-04-24T06:47:54;98971.56;;;9.03;65.58
19005;BME280;9635;52.078;8.648;2023-04-24T06:52:57;98969.19;;;9.46;64.65
19005;BME280;9635;52.078;8.648;2023-04-24T06:58:00;98964.13;;;9.43;64.60
19005;BME280;9635;52.078;8.648;2023-04-24T07:03:04;98969.53;;;9.15;64.67
19005;BME280;9635;52.078;8.648;2023-04-24T07:08:08;98973.03;;;8.88;65.20
19005;BME280;9635;52.078;8.648;2023-04-24T07:13:12;98966.53;;;9.64;63.95
19005;BME280;9635;52.078;8.648;2023-04-24T07:18:18;98974.53;;;9.46;63.62
19005;BME280;9635;52.078;8.648;2023-04-24T07:23:21;98969.50;;;9.43;63.33
19005;BME280;9635;52.078;8.648;2023-04-24T07:28:25;98969.31;;;9.26;63.48
19005;BME280;9635;52.078;8.648;2023-04-24T07:33:29;98984.16;;;8.93;63.91
19005;BME280;9635;52.078;8.648;2023-04-24T07:38:32;98986.31;;;9.17;63.18
19005;BME280;9635;52.078;8.648;2023-04-24T07:43:35;98983.38;;;9.38;62.81
19005;BME280;9635;52.078;8.648;2023-04-24T07:48:39;98988.34;;;9.51;62.18
19005;BME280;9635;52.078;8.648;2023-04-24T07:53:43;98993.25;;;9.56;61.61
19005;BME280;9635;52.078;8.648;2023-04-24T07:58:46;98991.88;;;9.24;63.32
19005;BME280;9635;52.078;8.648;2023-04-24T08:03:50;98999.44;;;9.38;62.71
19005;BME280;9635;52.078;8.648;2023-04-24T08:08:54;98993.25;;;9.73;61.79
19005;BME280;9635;52.078;8.648;2023-04-24T08:13:56;99006.66;;;9.56;62.38
19005;BME280;9635;52.078;8.648;2023-04-24T08:19:01;99019.91;;;9.29;62.81
19005;BME280;9635;52.078;8.648;2023-04-24T08:24:04;99013.69;;;9.39;62.62
19005;BME280;9635;52.078;8.648;2023-04-24T08:29:09;99009.59;;;9.35;62.26
19005;BME280;9635;52.078;8.648;2023-04-24T08:34:13;99033.00;;;9.05;62.37
19005;BME280;9635;52.078;8.648;2023-04-24T08:39:17;99028.94;;;9.38;62.76
19005;BME280;9635;52.078;8.648;2023-04-24T08:44:20;99029.56;;;9.50;62.60
19005;BME280;9635;52.078;8.648;2023-04-24T08:49:24;99027.34;;;9.63;61.08
19005;BME280;9635;52.078;8.648;2023-04-24T08:54:28;99016.44;;;10.10;59.88
19005;BME280;9635;52.078;8.648;2023-04-24T08:59:31;99042.75;;;9.61;59.73
19005;BME280;9635;52.078;8.648;2023-04-24T09:04:37;99032.75;;;9.54;60.72
19005;BME280;9635;52.078;8.648;2023-04-24T09:09:41;99016.19;;;9.40;61.54
19005;BME280;9635;52.078;8.648;2023-04-24T09:14:45;99016.16;;;9.96;60.35
19005;BME280;9635;52.078;8.648;2023-04-24T09:19:49;99017.94;;;9.77;61.16
19005;BME280;9635;52.078;8.648;2023-04-24T09:25:00;99033.91;;;9.23;61.58
19005;BME280;9635;52.078;8.648;2023-04-24T09:30:05;99022.91;;;9.72;60.77
19005;BME280;9635;52.078;8.648;2023-04-24T09:35:12;99053.34;;;8.98;61.97
19005;BME280;9635;52.078;8.648;2023-04-24T09:40:16;99043.50;;;9.54;61.46
19005;BME280;9635;52.078;8.648;2023-04-24T09:45:19;99039.63;;;9.11;61.57
19005;BME280;9635;52.078;8.648;2023-04-24T09:50:24;99039.22;;;9.61;60.97
19005;BME280;9635;52.078;8.648;2023-04-24T09:55:27;99036.09;;;9.38;60.95
19005;BME280;9635;52.078;8.648;2023-04-24T10:00:31;99045.03;;;9.56;60.59
19005;BME280;9635;52.078;8.648;2023-04-24T10:05:36;99045.75;;;9.76;61.28
19005;BME280;9635;52.078;8.648;2023-04-24T10:10:41;99056.50;;;9.21;61.47
19005;BME280;9635;52.078;8.648;2023-04-24T10:15:45;99047.47;;;9.49;61.51
19005;BME280;9635;52.078;8.648;2023-04-24T10:20:50;99059.63;;;8.69;66.40
19005;BME280;9635;52.078;8.648;2023-04-24T10:25:53;99066.84;;;8.49;65.75
19005;BME280;9635;52.078;8.648;2023-04-24T10:30:57;99077.53;;;8.69;64.09
19005;BME280;9635;52.078;8.648;2023-04-24T10:36:02;99102.34;;;9.18;63.33
19005;BME280;9635;52.078;8.648;2023-04-24T10:41:09;99096.72;;;8.64;64.24
19005;BME280;9635;52.078;8.648;2023-04-24T10:46:19;99078.91;;;8.82;63.51
19005;BME280;9635;52.078;8.648;2023-04-24T10:51:25;99091.56;;;8.90;64.08
19005;BME280;9635;52.078;8.648;2023-04-24T10:56:45;99099.72;;;8.98;64.76
19005;BME280;9635;52.078;8.648;2023-04-24T11:01:52;99106.69;;;8.23;68.56
19005;BME280;9635;52.078;8.648;2023-04-24T11:06:57;99130.91;;;8.22;68.68
19005;BME280;9635;52.078;8.648;2023-04-24T11:12:04;99130.47;;;8.94;70.57
19005;BME280;9635;52.078;8.648;2023-04-24T11:17:28;99137.09;;;8.12;72.14
19005;BME280;9635;52.078;8.648;2023-04-24T11:22:34;99131.47;;;8.45;73.69
19005;BME280;9635;52.078;8.648;2023-04-24T11:27:39;99152.25;;;7.92;74.37
19005;BME280;9635;52.078;8.648;2023-04-24T11:32:43;99153.97;;;8.03;76.46
19005;BME280;9635;52.078;8.648;2023-04-24T11:37:48;99166.69;;;8.40;73.40
19005;BME280;9635;52.078;8.648;2023-04-24T11:42:54;99163.16;;;8.30;71.99
19005;BME280;9635;52.078;8.648;2023-04-24T11:47:57;99174.13;;;7.67;73.48
19005;BME280;9635;52.078;8.648;2023-04-24T11:53:03;99187.84;;;7.83;75.96
19005;BME280;9635;52.078;8.648;2023-04-24T11:58:06;99223.44;;;7.53;77.14
19005;BME280;9635;52.078;8.648;2023-04-24T12:03:10;99219.19;;;7.41;79.28
19005;BME280;9635;52.078;8.648;2023-04-24T12:08:28;99231.38;;;6.92;81.77
19005;BME280;9635;52.078;8.648;2023-04-24T12:13:31;99239.38;;;7.13;81.65
19005;BME280;9635;52.078;8.648;2023-04-24T12:18:34;99247.75;;;6.87;84.16
19005;BME280;9635;52.078;8.648;2023-04-24T12:23:38;99253.66;;;6.58;89.32
19005;BME280;9635;52.078;8.648;2023-04-24T12:28:41;99263.25;;;6.50;100.00
19005;BME280;9635;52.078;8.648;2023-04-24T12:33:43;99270.59;;;6.69;100.00
19005;BME280;9635;52.078;8.648;2023-04-24T12:38:52;99277.72;;;6.36;100.00
19005;BME280;9635;52.078;8.648;2023-04-24T12:43:55;99287.50;;;6.47;100.00
19005;BME280;9635;52.078;8.648;2023-04-24T12:48:58;99300.81;;;6.14;95.47
19005;BME280;9635;52.078;8.648;2023-04-24T12:54:02;99314.81;;;6.50;96.41
19005;BME280;9635;52.078;8.648;2023-04-24T12:59:05;99309.94;;;6.55;95.88
19005;BME280;9635;52.078;8.648;2023-04-24T13:04:08;99334.63;;;6.80;94.71
19005;BME280;9635;52.078;8.648;2023-04-24T13:09:13;99327.59;;;6.90;94.91
19005;BME280;9635;52.078;8.648;2023-04-24T13:14:16;99333.53;;;6.71;94.99
19005;BME280;9635;52.078;8.648;2023-04-24T13:19:19;99347.00;;;6.81;93.74
19005;BME280;9635;52.078;8.648;2023-04-24T13:24:23;99346.19;;;6.69;94.50
19005;BME280;9635;52.078;8.648;2023-04-24T13:29:26;99359.31;;;6.16;96.50
19005;BME280;9635;52.078;8.648;2023-04-24T13:34:29;99360.16;;;6.28;95.32
19005;BME280;9635;52.078;8.648;2023-04-24T13:39:34;99365.97;;;6.44;93.46
19005;BME280;9635;52.078;8.648;2023-04-24T13:44:36;99365.44;;;7.27;91.18
19005;BME280;9635;52.078;8.648;2023-04-24T13:49:39;99383.88;;;6.98;91.27
19005;BME280;9635;52.078;8.648;2023-04-24T13:54:44;99389.47;;;6.84;91.47
19005;BME280;9635;52.078;8.648;2023-04-24T13:59:46;99389.28;;;6.31;94.08
19005;BME280;9635;52.078;8.648;2023-04-24T14:04:49;99396.31;;;6.21;95.63
19005;BME280;9635;52.078;8.648;2023-04-24T14:09:53;99387.94;;;6.48;94.38
19005;BME280;9635;52.078;8.648;2023-04-24T14:14:56;99391.19;;;6.62;93.13
19005;BME280;9635;52.078;8.648;2023-04-24T14:19:59;99389.94;;;7.00;90.66
19005;BME280;9635;52.078;8.648;2023-04-24T14:25:04;99393.53;;;7.43;91.78
19005;BME280;9635;52.078;8.648;2023-04-24T14:30:08;99385.88;;;7.49;89.26
19005;BME280;9635;52.078;8.648;2023-04-24T14:35:11;99400.16;;;7.81;87.30
19005;BME280;9635;52.078;8.648;2023-04-24T14:40:15;99401.19;;;7.68;84.14
19005;BME280;9635;52.078;8.648;2023-04-24T14:45:38;99396.97;;;7.34;86.28
19005;BME280;9635;52.078;8.648;2023-04-24T14:50:42;99397.97;;;6.78;86.02
19005;BME280;9635;52.078;8.648;2023-04-24T14:55:46;99416.91;;;6.75;84.50
19005;BME280;9635;52.078;8.648;2023-04-24T15:00:49;99417.13;;;6.83;85.04
19005;BME280;9635;52.078;8.648;2023-04-24T15:05:53;99421.09;;;7.11;84.92
19005;BME280;9635;52.078;8.648;2023-04-24T15:10:57;99415.97;;;7.19;84.71
19005;BME280;9635;52.078;8.648;2023-04-24T15:16:00;99437.00;;;7.01;84.63
19005;BME280;9635;52.078;8.648;2023-04-24T15:21:03;99435.13;;;7.36;82.99
19005;BME280;9635;52.078;8.648;2023-04-24T15:26:08;99446.75;;;7.35;82.01
19005;BME280;9635;52.078;8.648;2023-04-24T15:31:11;99442.00;;;6.83;81.20
19005;BME280;9635;52.078;8.648;2023-04-24T15:36:14;99459.66;;;7.30;81.55
19005;BME280;9635;52.078;8.648;2023-04-24T15:41:18;99465.44;;;7.02;82.78
19005;BME280;9635;52.078;8.648;2023-04-24T15:46:21;99463.09;;;7.09;80.71
19005;BME280;9635;52.078;8.648;2023-04-24T15:51:24;99480.22;;;6.84;80.93
19005;BME280;9635;52.078;8.648;2023-04-24T15:56:28;99483.50;;;7.21;79.69
19005;BME280;9635;52.078;8.648;2023-04-24T16:01:32;99484.81;;;7.27;79.53
19005;BME280;9635;52.078;8.648;2023-04-24T16:06:35;99480.56;;;7.24;80.69
19005;BME280;9635;52.078;8.648;2023-04-24T16:11:39;99496.72;;;7.12;80.61
19005;BME280;9635;52.078;8.648;2023-04-24T16:16:42;99495.91;;;6.89;78.62
19005;BME280;9635;52.078;8.648;2023-04-24T16:21:45;99497.25;;;7.49;77.96
19005;BME280;9635;52.078;8.648;2023-04-24T16:26:49;99500.25;;;7.88;77.04
19005;BME280;9635;52.078;8.648;2023-04-24T16:31:52;99510.22;;;7.54;77.04
19005;BME280;9635;52.078;8.648;2023-04-24T16:36:55;99510.16;;;7.44;78.35
19005;BME280;9635;52.078;8.648;2023-04-24T16:41:59;99507.34;;;7.34;79.44
19005;BME280;9635;52.078;8.648;2023-04-24T16:47:03;99515.75;;;6.84;80.95
19005;BME280;9635;52.078;8.648;2023-04-24T16:52:06;99532.44;;;6.99;81.62
19005;BME280;9635;52.078;8.648;2023-04-24T16:57:10;99538.59;;;7.22;82.72
19005;BME280;9635;52.078;8.648;2023-04-24T17:02:13;99531.03;;;6.49;84.70
19005;BME280;9635;52.078;8.648;2023-04-24T17:07:16;99536.38;;;6.49;82.30
19005;BME280;9635;52.078;8.648;2023-04-24T17:12:20;99532.59;;;6.51;80.10
19005;BME280;9635;52.078;8.648;2023-04-24T17:17:23;99544.91;;;8.29;77.72
19005;BME280;9635;52.078;8.648;2023-04-24T17:22:26;99535.78;;;10.42;67.13
19005;BME280;9635;52.078;8.648;2023-04-24T17:27:30;99546.91;;;9.10;69.99
19005;BME280;9635;52.078;8.648;2023-04-24T17:32:33;99545.91;;;7.64;75.17
19005;BME280;9635;52.078;8.648;2023-04-24T17:37:36;99550.09;;;7.34;75.41
19005;BME280;9635;52.078;8.648;2023-04-24T17:42:40;99558.16;;;7.12;75.79
19005;BME280;9635;52.078;8.648;2023-04-24T17:47:43;99551.72;;;6.92;75.46
19005;BME280;9635;52.078;8.648;2023-04-24T17:52:47;99559.72;;;6.80;76.25
19005;BME280;9635;52.078;8.648;2023-04-24T17:57:51;99552.06;;;7.10;75.88
19005;BME280;9635;52.078;8.648;2023-04-24T18:02:54;99552.31;;;7.06;75.37
19005;BME280;9635;52.078;8.648;2023-04-24T18:08:02;99558.50;;;6.96;75.94
19005;BME280;9635;52.078;8.648;2023-04-24T18:13:07;99556.78;;;6.72;76.10
19005;BME280;9635;52.078;8.648;2023-04-24T18:18:10;99562.50;;;7.24;74.60
19005;BME280;9635;52.078;8.648;2023-04-24T18:23:13;99568.34;;;7.06;73.95
19005;BME280;9635;52.078;8.648;2023-04-24T18:28:17;99580.31;;;6.67;74.36
19005;BME280;9635;52.078;8.648;2023-04-24T18:33:20;99576.34;;;6.37;75.43
19005;BME280;9635;52.078;8.648;2023-04-24T18:38:22;99572.72;;;6.50;75.07
19005;BME280;9635;52.078;8.648;2023-04-24T18:43:27;99581.94;;;6.34;75.02
19005;BME280;9635;52.078;8.648;2023-04-24T18:48:30;99583.34;;;6.27;74.38
19005;BME280;9635;52.078;8.648;2023-04-24T18:53:33;99589.88;;;6.58;73.49
19005;BME280;9635;52.078;8.648;2023-04-24T18:58:37;99583.19;;;6.53;73.48
19005;BME280;9635;52.078;8.648;2023-04-24T19:03:44;99594.59;;;6.66;73.10
19005;BME280;9635;52.078;8.648;2023-04-24T19:08:47;99600.06;;;6.53;73.51
19005;BME280;9635;52.078;8.648;2023-04-24T19:13:52;99601.16;;;6.62;73.81
19005;BME280;9635;52.078;8.648;2023-04-24T19:18:55;99609.72;;;6.90;72.53
19005;BME280;9635;52.078;8.648;2023-04-24T19:23:58;99618.53;;;6.79;72.90
19005;BME280;9635;52.078;8.648;2023-04-24T19:29:02;99615.13;;;6.77;72.66
19005;BME280;9635;52.078;8.648;2023-04-24T19:34:05;99620.84;;;6.83;72.50
19005;BME280;9635;52.078;8.648;2023-04-24T19:39:08;99627.38;;;6.68;73.28
19005;BME280;9635;52.078;8.648;2023-04-24T19:44:12;99626.88;;;6.63;73.96
19005;BME280;9635;52.078;8.648;2023-04-24T19:49:17;99624.44;;;6.60;74.49
19005;BME280;9635;52.078;8.648;2023-04-24T19:54:20;99614.97;;;6.56;75.23
19005;BME280;9635;52.078;8.648;2023-04-24T19:59:24;99620.06;;;6.48;75.81
19005;BME280;9635;52.078;8.648;2023-04-24T20:04:27;99619.91;;;6.49;76.68
19005;BME280;9635;52.078;8.648;2023-04-24T20:09:30;99628.06;;;6.48;76.87
19005;BME280;9635;52.078;8.648;2023-04-24T20:14:35;99627.06;;;6.49;77.01
19005;BME280;9635;52.078;8.648;2023-04-24T20:19:38;99626.28;;;6.35;77.27
19005;BME280;9635;52.078;8.648;2023-04-24T20:24:41;99632.84;;;6.67;75.34
19005;BME280;9635;52.078;8.648;2023-04-24T20:29:46;99630.41;;;6.28;74.94
19005;BME280;9635;52.078;8.648;2023-04-24T20:34:49;99644.41;;;5.95;74.99
19005;BME280;9635;52.078;8.648;2023-04-24T20:39:52;99634.13;;;6.14;73.08
19005;BME280;9635;52.078;8.648;2023-04-24T20:44:56;99627.75;;;6.28;71.73
19005;BME280;9635;52.078;8.648;2023-04-24T20:49:59;99626.41;;;6.23;70.54
19005;BME280;9635;52.078;8.648;2023-04-24T20:55:04;99637.34;;;6.31;70.45
19005;BME280;9635;52.078;8.648;2023-04-24T21:00:09;99625.47;;;6.81;70.13
19005;BME280;9635;52.078;8.648;2023-04-24T21:05:13;99627.84;;;6.62;72.84
19005;BME280;9635;52.078;8.648;2023-04-24T21:10:16;99638.19;;;6.31;74.56
19005;BME280;9635;52.078;8.648;2023-04-24T21:15:21;99635.28;;;6.34;74.60
19005;BME280;9635;52.078;8.648;2023-04-24T21:20:24;99633.75;;;5.95;75.79
19005;BME280;9635;52.078;8.648;2023-04-24T21:25:27;99628.81;;;6.26;73.73
19005;BME280;9635;52.078;8.648;2023-04-24T21:30:32;99630.50;;;6.27;73.37
19005;BME280;9635;52.078;8.648;2023-04-24T21:35:35;99634.03;;;6.03;73.49
19005;BME280;9635;52.078;8.648;2023-04-24T21:40:38;99638.84;;;6.22;72.81
19005;BME280;9635;52.078;8.648;2023-04-24T21:45:42;99634.69;;;6.07;73.12
19005;BME280;9635;52.078;8.648;2023-04-24T21:50:45;99618.91;;;5.80;73.72
19005;BME280;9635;52.078;8.648;2023-04-24T21:55:48;99623.53;;;5.89;73.21
19005;BME280;9635;52.078;8.648;2023-04-24T22:00:52;99632.50;;;5.51;74.07
19005;BME280;9635;52.078;8.648;2023-04-24T22:05:55;99625.41;;;6.00;72.83
19005;BME280;9635;52.078;8.648;2023-04-24T22:10:58;99629.72;;;5.65;73.32
19005;BME280;9635;52.078;8.648;2023-04-24T22:16:03;99618.13;;;5.54;73.10
19005;BME280;9635;52.078;8.648;2023-04-24T22:21:06;99632.19;;;5.56;72.80
19005;BME280;9635;52.078;8.648;2023-04-24T22:26:09;99624.91;;;5.70;72.30
19005;BME280;9635;52.078;8.648;2023-04-24T22:31:13;99630.50;;;5.79;72.50
19005;BME280;9635;52.078;8.648;2023-04-24T22:36:16;99628.75;;;5.66;73.16
19005;BME280;9635;52.078;8.648;2023-04-24T22:41:20;99631.91;;;5.84;72.62
19005;BME280;9635;52.078;8.648;2023-04-24T22:46:24;99629.34;;;5.46;73.57
19005;BME280;9635;52.078;8.648;2023-04-24T22:51:27;99633.16;;;5.55;72.99
19005;BME280;9635;52.078;8.648;2023-04-24T22:56:34;99634.06;;;5.30;73.62
19005;BME280;9635;52.078;8.648;2023-04-24T23:01:39;99630.13;;;5.59;72.66
19005;BME280;9635;52.078;8.648;2023-04-24T23:06:42;99634.97;;;5.54;72.78
19005;BME280;9635;52.078;8.648;2023-04-24T23:11:45;99636.34;;;5.60;72.87
19005;BME280;9635;52.078;8.648;2023-04-24T23:16:49;99630.06;;;5.48;73.31
19005;BME280;9635;52.078;8.648;2023-04-24T23:21:52;99627.88;;;5.29;73.52
19005;BME280;9635;52.078;8.648;2023-04-24T23:26:55;99628.91;;;5.52;73.27
19005;BME280;9635;52.078;8.648;2023-04-24T23:31:59;99635.28;;;5.49;72.88
19005;BME280;9635;52.078;8.648;2023-04-24T23:37:04;99630.50;;;5.42;73.52
19005;BME280;9635;52.078;8.648;2023-04-24T23:42:07;99633.09;;;5.43;73.62
19005;BME280;9635;52.078;8.648;2023-04-24T23:47:11;99628.91;;;5.52;73.50
19005;BME280;9635;52.078;8.648;2023-04-24T23:52:14;99628.22;;;5.24;74.59
19005;BME280;9635;52.078;8.648;2023-04-24T23:57:17;99626.25;;;5.39;73.58
